Time;durP1;ratioP1;P1;durP2;ratioP2;P2;SDS_P1;SDS_P2;PMS_P1;PMS_P2;Temp;Humidity;BMP_temperature;BMP_pressure;BME280_temperature;BME280_humidity;BME280_pressure;Samples;Min_cycle;Max_cycle;Signal;HPM_P1;HPM_P2
2023/07/02 00:01:26;;;;;;;14.75;5.57;;;;;;;22.86;70.79;98877.38;3155584;28;20481;-67
2023/07/02 00:02:58;;;;;;;11.98;7.05;;;;;;;22.84;71.07;98885.53;3169759;28;20112;-68
2023/07/02 00:04:30;;;;;;;10.82;6.15;;;;;;;22.81;71.24;98885.88;3171011;28;20048;-68
2023/07/02 00:06:01;;;;;;;8.57;5.53;;;;;;;22.81;70.77;98882.38;3162596;28;20052;-68
2023/07/02 00:07:35;;;;;;;12.88;6.88;;;;;;;22.79;71.02;98879.06;3168080;28;20053;-68
2023/07/02 00:09:06;;;;;;;10.40;6.50;;;;;;;22.77;70.90;98883.72;3168564;28;20051;-68
2023/07/02 00:10:38;;;;;;;14.02;7.60;;;;;;;22.72;71.21;98884.25;3158383;28;20565;-68
2023/07/02 00:12:09;;;;;;;13.48;7.22;;;;;;;22.70;71.24;98888.88;3165941;28;20508;-68
2023/07/02 00:13:42;;;;;;;13.00;7.40;;;;;;;22.65;71.21;98884.06;3170809;28;20134;-68
2023/07/02 00:15:14;;;;;;;15.27;7.63;;;;;;;22.60;71.16;98882.94;3170839;28;20573;-68
2023/07/02 00:16:46;;;;;;;12.13;6.43;;;;;;;22.62;71.34;98878.28;3166411;28;20040;-68
2023/07/02 00:18:18;;;;;;;13.85;6.45;;;;;;;22.58;71.31;98883.09;3162797;28;20043;-68
2023/07/02 00:19:51;;;;;;;8.75;5.85;;;;;;;22.58;71.62;98883.09;3170588;28;20044;-68
2023/07/02 00:21:27;;;;;;;10.50;6.28;;;;;;;22.54;71.64;98878.28;3170785;28;20109;-67
2023/07/02 00:23:00;;;;;;;13.30;6.15;;;;;;;22.44;72.14;98881.94;3170462;28;20887;-68
2023/07/02 00:24:32;;;;;;;9.18;6.18;;;;;;;22.43;72.93;98890.91;3170708;28;20511;-68
2023/07/02 00:26:03;;;;;;;9.55;5.30;;;;;;;22.46;73.16;98879.13;3170493;28;20770;-68
2023/07/02 00:27:34;;;;;;;10.65;6.28;;;;;;;22.46;72.89;98882.59;3170708;28;20260;-68
2023/07/02 00:29:08;;;;;;;9.98;5.75;;;;;;;22.51;73.33;98879.47;3170514;28;20043;-68
2023/07/02 00:30:40;;;;;;;13.30;6.57;;;;;;;22.53;73.11;98890.72;3145236;28;20561;-68
2023/07/02 00:32:12;;;;;;;10.52;6.03;;;;;;;22.49;73.44;98890.22;3168948;28;20051;-68
2023/07/02 00:33:44;;;;;;;9.50;5.95;;;;;;;22.46;73.50;98893.22;3161661;28;20052;-68
2023/07/02 00:35:16;;;;;;;9.02;5.60;;;;;;;22.43;73.45;98884.78;3166247;28;20176;-69
2023/07/02 00:36:48;;;;;;;12.05;6.45;;;;;;;22.38;73.41;98887.91;3169946;28;20465;-68
2023/07/02 00:38:19;;;;;;;13.10;6.88;;;;;;;22.39;73.90;98889.59;3170634;28;20063;-69
2023/07/02 00:39:52;;;;;;;11.48;6.40;;;;;;;22.38;73.60;98889.75;3170850;28;20047;-69
2023/07/02 00:41:24;;;;;;;8.55;6.20;;;;;;;22.33;73.69;98890.25;3170398;28;20053;-68
2023/07/02 00:42:56;;;;;;;12.57;6.95;;;;;;;22.31;73.68;98891.41;3164750;28;20117;-68
2023/07/02 00:44:29;;;;;;;10.07;6.30;;;;;;;22.31;73.59;98884.28;3163074;28;20440;-68
2023/07/02 00:46:00;;;;;;;11.98;6.30;;;;;;;22.29;73.57;98888.09;3170394;28;20055;-68
2023/07/02 00:47:34;;;;;;;10.20;6.50;;;;;;;22.30;73.68;98889.75;3170047;28;20047;-68
2023/07/02 00:49:09;;;;;;;17.92;7.82;;;;;;;22.27;73.96;98890.91;3170064;28;20047;-68
2023/07/02 00:50:40;;;;;;;13.35;7.53;;;;;;;22.23;73.82;98885.09;3170317;28;20047;-68
2023/07/02 00:52:12;;;;;;;16.77;8.40;;;;;;;22.21;73.94;98884.47;3170224;28;20066;-68
2023/07/02 00:53:45;;;;;;;11.15;7.38;;;;;;;22.24;73.71;98880.63;3170306;28;20101;-68
2023/07/02 00:55:17;;;;;;;13.50;7.88;;;;;;;22.22;73.56;98877.34;3169945;28;20162;-68
2023/07/02 00:56:48;;;;;;;15.75;8.38;;;;;;;22.25;73.31;98877.00;3170283;28;20052;-68
2023/07/02 00:58:20;;;;;;;14.38;8.02;;;;;;;22.29;73.38;98874.84;3170466;28;20421;-68
2023/07/02 00:59:53;;;;;;;11.43;7.93;;;;;;;22.24;73.46;98867.38;3170017;28;20077;-69
2023/07/02 01:01:27;;;;;;;18.23;8.23;;;;;;;22.33;72.97;98870.84;3160175;28;20051;-68
2023/07/02 01:02:58;;;;;;;17.63;8.52;;;;;;;22.35;72.39;98871.50;3169325;28;20085;-68
2023/07/02 01:04:30;;;;;;;14.07;7.93;;;;;;;22.37;72.16;98865.06;3170250;28;20055;-67
2023/07/02 01:06:03;;;;;;;12.10;7.45;;;;;;;22.39;72.28;98868.38;3162878;28;20055;-67
2023/07/02 01:07:35;;;;;;;17.85;7.40;;;;;;;22.40;72.17;98872.66;3169749;28;20079;-67
2023/07/02 01:09:06;;;;;;;11.88;6.70;;;;;;;22.38;71.57;98877.31;3170169;28;20048;-68
2023/07/02 01:10:38;;;;;;;14.05;6.57;;;;;;;22.34;72.03;98880.47;3170054;28;20130;-68
2023/07/02 01:12:11;;;;;;;12.85;6.55;;;;;;;22.29;71.57;98878.31;3170230;28;20058;-68
2023/07/02 01:13:44;;;;;;;8.63;5.80;;;;;;;22.23;71.35;98876.31;3170061;28;20043;-70
2023/07/02 01:15:17;;;;;;;8.93;5.30;;;;;;;22.18;71.44;98876.84;3170436;28;20054;-70
2023/07/02 01:16:48;;;;;;;;;;;;;;;21.98;71.72;98871.00;3164941;28;20059;-69
2023/07/02 01:18:20;;;;;;;11.07;5.65;;;;;;;22.07;71.29;98877.13;3162460;28;20315;-70
2023/07/02 01:19:58;;;;;;;10.77;5.85;;;;;;;22.12;70.66;98876.63;3169981;28;20052;-70
2023/07/02 01:21:31;;;;;;;13.60;6.30;;;;;;;22.12;70.57;98876.63;3170195;28;20127;-67
2023/07/02 01:23:03;;;;;;;12.75;6.45;;;;;;;22.11;70.44;98875.81;3169955;28;20508;-69
2023/07/02 01:24:35;;;;;;;11.80;5.90;;;;;;;22.07;70.80;98871.00;3169959;28;20075;-68
2023/07/02 01:26:07;;;;;;;12.38;5.57;;;;;;;22.07;70.71;98873.66;3170338;28;20104;-67
2023/07/02 01:27:39;;;;;;;9.32;5.75;;;;;;;22.07;70.75;98863.06;3169463;28;20040;-68
2023/07/02 01:29:17;;;;;;;10.88;5.78;;;;;;;22.10;70.13;98868.84;3169945;28;20048;-68
2023/07/02 01:30:49;;;;;;;10.65;5.68;;;;;;;22.10;70.00;98860.06;3169924;28;20051;-68
2023/07/02 01:32:21;;;;;;;9.13;5.47;;;;;;;22.10;70.40;98865.38;3170222;28;20048;-68
2023/07/02 01:33:52;;;;;;;15.25;6.07;;;;;;;22.06;70.21;98864.84;3170091;28;20142;-69
2023/07/02 01:35:25;;;;;;;14.20;6.18;;;;;;;22.05;70.30;98871.16;3170134;28;20139;-70
2023/07/02 01:36:57;;;;;;;;;;;;;;;21.87;70.71;98866.00;3170527;28;20048;-67
2023/07/02 01:38:28;;;;;;;10.32;5.50;;;;;;;21.92;70.52;98861.06;3170045;28;19927;-67
2023/07/02 01:39:59;;;;;;;12.23;6.00;;;;;;;21.96;70.67;98866.84;3169609;28;20047;-69
2023/07/02 01:41:32;;;;;;;12.80;5.82;;;;;;;21.96;70.71;98865.03;3169798;28;20130;-67
2023/07/02 01:43:04;;;;;;;12.27;5.85;;;;;;;21.97;70.11;98863.19;3164733;28;20052;-69
2023/07/02 01:44:35;;;;;;;11.73;5.82;;;;;;;21.96;70.21;98859.72;3166329;28;20048;-67
2023/07/02 01:46:07;;;;;;;12.38;5.75;;;;;;;22.03;70.19;98852.75;3172375;28;20126;-67
2023/07/02 01:47:38;;;;;;;12.65;5.75;;;;;;;22.04;70.31;98854.44;3172405;28;20487;-68
2023/07/02 01:49:10;;;;;;;13.18;6.10;;;;;;;22.04;70.17;98854.44;3172559;28;20112;-68
2023/07/02 01:50:43;;;;;;;10.20;5.72;;;;;;;22.02;70.04;98860.88;3172289;28;20043;-68
2023/07/02 01:52:15;;;;;;;10.57;5.30;;;;;;;22.00;70.00;98857.56;3171920;28;20064;-68
2023/07/02 01:53:45;;;;;;;9.60;5.60;;;;;;;22.02;70.01;98861.72;3172250;28;20051;-68
2023/07/02 01:55:18;;;;;;;13.88;6.00;;;;;;;22.05;70.37;98860.56;3172550;28;20050;-68
2023/07/02 01:56:48;;;;;;;12.73;5.95;;;;;;;22.07;70.05;98855.94;3172230;28;20842;-68
2023/07/02 01:58:22;;;;;;;13.27;5.68;;;;;;;22.09;70.13;98843.31;3153293;28;20044;-69
2023/07/02 01:59:52;;;;;;;9.73;5.60;;;;;;;22.05;69.90;98836.69;3171842;28;20059;-70
2023/07/02 02:01:24;;;;;;;12.68;5.68;;;;;;;22.10;70.08;98841.50;3162341;28;20225;-68
2023/07/02 02:02:55;;;;;;;13.07;5.25;;;;;;;22.06;69.83;98838.34;3159776;28;20052;-69
2023/07/02 02:04:27;;;;;;;11.73;5.30;;;;;;;22.11;69.61;98843.16;3169097;28;20128;-69
2023/07/02 02:05:59;;;;;;;13.82;5.78;;;;;;;22.10;69.68;98849.47;3172309;28;20051;-69
2023/07/02 02:07:32;;;;;;;10.75;5.38;;;;;;;22.07;69.75;98845.31;3172008;28;20100;-68
2023/07/02 02:09:04;;;;;;;12.57;5.60;;;;;;;22.09;69.87;98855.75;3172335;28;20055;-69
2023/07/02 02:10:36;;;;;;;12.10;5.93;;;;;;;22.08;69.62;98848.78;3171975;28;20490;-68
2023/07/02 02:12:07;;;;;;;14.85;5.97;;;;;;;22.09;69.80;98851.25;3172310;28;20067;-68
2023/07/02 02:13:39;;;;;;;15.30;5.72;;;;;;;22.12;69.29;98844.81;3172368;28;20139;-68
2023/07/02 02:15:14;;;;;;;8.93;5.40;;;;;;;22.09;69.07;98838.00;3171984;28;20512;-68
2023/07/02 02:16:46;;;;;;;10.32;5.22;;;;;;;21.98;69.31;98833.06;3171539;28;20048;-69
2023/07/02 02:18:18;;;;;;;13.07;5.97;;;;;;;21.99;69.34;98843.50;3172118;28;20481;-69
2023/07/02 02:19:49;;;;;;;13.57;5.60;;;;;;;21.98;69.28;98849.78;3172255;28;20062;-69
2023/07/02 02:21:23;;;;;;;8.38;5.05;;;;;;;22.01;69.22;98844.16;3172370;28;20051;-69
2023/07/02 02:22:55;;;;;;;12.98;5.50;;;;;;;22.03;68.86;98842.16;3171796;28;20047;-69
2023/07/02 02:24:26;;;;;;;14.00;5.75;;;;;;;22.04;68.70;98840.34;3172337;28;20117;-69
2023/07/02 02:25:58;;;;;;;9.23;5.55;;;;;;;22.02;68.79;98837.84;3172119;28;20051;-69
2023/07/02 02:27:29;;;;;;;9.23;5.07;;;;;;;21.99;68.38;98832.88;3171811;28;20509;-69
2023/07/02 02:29:01;;;;;;;10.35;5.72;;;;;;;21.98;68.05;98828.59;3172012;28;20178;-69
2023/07/02 02:30:33;;;;;;;9.32;5.45;;;;;;;22.00;68.45;98839.84;3172296;28;20432;-69
2023/07/02 02:32:06;;;;;;;9.48;5.07;;;;;;;22.02;67.97;98840.50;3171869;28;20057;-69
2023/07/02 02:33:39;;;;;;;9.70;5.43;;;;;;;22.01;68.02;98838.84;3171668;28;20051;-69
2023/07/02 02:35:09;;;;;;;12.02;5.65;;;;;;;22.02;68.29;98850.28;3172012;28;20070;-69
2023/07/02 02:36:43;;;;;;;10.05;5.35;;;;;;;22.05;68.06;98847.31;3172212;28;20454;-69
2023/07/02 02:38:14;;;;;;;8.98;4.70;;;;;;;22.03;68.15;98851.94;3172073;28;20055;-69
2023/07/02 02:39:46;;;;;;;9.80;5.63;;;;;;;22.07;68.03;98860.41;3171978;28;20048;-69
2023/07/02 02:41:18;;;;;;;7.93;5.13;;;;;;;22.08;68.25;98859.41;3171741;28;20044;-69
2023/07/02 02:42:49;;;;;;;14.30;5.35;;;;;;;22.08;68.17;98857.56;3167421;28;20498;-69
2023/07/02 02:44:20;;;;;;;9.80;5.57;;;;;;;22.12;68.13;98860.72;3164348;28;20055;-69
2023/07/02 02:45:52;;;;;;;9.68;5.45;;;;;;;22.15;68.23;98865.69;3171548;28;20048;-69
2023/07/02 02:47:23;;;;;;;11.13;5.60;;;;;;;22.17;68.29;98863.75;3172112;28;20050;-69
2023/07/02 02:48:55;;;;;;;13.23;5.78;;;;;;;22.17;68.25;98858.44;3171282;28;20051;-69
2023/07/02 02:50:27;;;;;;;9.80;5.30;;;;;;;22.14;68.68;98851.59;3172045;28;20044;-70
2023/07/02 02:52:00;;;;;;;11.32;5.78;;;;;;;22.18;68.80;98858.28;3171620;28;20059;-69
2023/07/02 02:53:31;;;;;;;11.77;6.40;;;;;;;22.14;68.70;98861.38;3172281;28;20043;-69
2023/07/02 02:55:03;;;;;;;8.77;5.28;;;;;;;22.12;68.81;98871.31;3160255;28;20096;-69
2023/07/02 02:56:33;;;;;;;12.93;5.88;;;;;;;22.14;68.32;98877.28;3146925;28;20051;-69
2023/07/02 02:58:05;;;;;;;11.00;5.47;;;;;;;22.09;68.56;98871.66;3165760;28;20052;-68
2023/07/02 02:59:36;;;;;;;12.38;5.57;;;;;;;22.11;68.71;98874.97;3169914;28;20074;-69
2023/07/02 03:01:10;;;;;;;10.00;5.43;;;;;;;22.10;68.16;98884.75;3164090;28;20047;-69
2023/07/02 03:02:42;;;;;;;14.95;5.90;;;;;;;22.02;68.34;98887.41;3168101;28;20043;-69
2023/07/02 03:04:12;;;;;;;9.35;5.68;;;;;;;21.96;68.54;98893.38;3171421;28;20460;-68
2023/07/02 03:05:47;;;;;;;11.55;5.43;;;;;;;21.95;68.17;98897.84;3171575;28;20047;-68
2023/07/02 03:07:21;;;;;;;9.75;5.65;;;;;;;21.95;68.54;98902.31;3171640;28;20078;-68
2023/07/02 03:08:51;;;;;;;9.32;4.93;;;;;;;21.93;68.54;98891.88;3171510;28;20048;-69
2023/07/02 03:10:23;;;;;;;12.02;5.72;;;;;;;21.92;68.41;98892.03;3171402;28;20549;-69
2023/07/02 03:11:54;;;;;;;9.52;4.93;;;;;;;21.95;67.96;98894.38;3171372;28;20413;-68
2023/07/02 03:13:26;;;;;;;12.07;5.78;;;;;;;21.96;68.03;98898.66;3171607;28;20046;-69
2023/07/02 03:14:57;;;;;;;9.20;5.45;;;;;;;21.95;67.82;98897.84;3171696;28;20125;-69
2023/07/02 03:16:29;;;;;;;10.52;5.65;;;;;;;21.96;67.75;98901.31;3169662;28;20047;-69
2023/07/02 03:18:01;;;;;;;13.30;5.65;;;;;;;21.96;67.96;98902.13;3165097;28;20061;-68
2023/07/02 03:19:31;;;;;;;12.38;6.72;;;;;;;21.95;67.71;98897.84;3171288;28;20489;-68
2023/07/02 03:21:03;;;;;;;13.50;5.78;;;;;;;22.01;67.90;98904.31;3171364;28;20134;-69
2023/07/02 03:22:36;;;;;;;11.75;5.85;;;;;;;22.02;67.83;98905.97;3171643;28;20490;-68
2023/07/02 03:24:07;;;;;;;15.52;5.68;;;;;;;22.01;67.52;98907.78;3146545;28;20426;-69
2023/07/02 03:25:39;;;;;;;12.20;5.53;;;;;;;22.04;67.68;98919.88;3170152;28;20054;-69
2023/07/02 03:27:10;;;;;;;9.02;5.22;;;;;;;22.03;67.85;98919.03;3171601;28;20043;-69
2023/07/02 03:28:42;;;;;;;8.15;5.13;;;;;;;22.01;67.98;98921.03;3171219;28;20429;-69
2023/07/02 03:30:14;;;;;;;12.30;5.88;;;;;;;21.99;68.00;98919.53;3171283;28;20436;-69
2023/07/02 03:31:46;;;;;;;11.27;6.25;;;;;;;21.93;68.06;98921.03;3171050;28;20429;-69
2023/07/02 03:33:18;;;;;;;20.75;7.30;;;;;;;21.93;68.46;98923.66;3171164;28;20524;-69
2023/07/02 03:34:48;;;;;;;14.80;5.22;;;;;;;21.91;68.32;98930.94;3171190;28;20044;-68
2023/07/02 03:36:20;;;;;;;10.48;5.97;;;;;;;21.89;68.66;98922.34;3171202;28;20185;-69
2023/07/02 03:37:53;;;;;;;13.07;5.50;;;;;;;21.81;68.59;98919.69;3171229;28;20040;-69
2023/07/02 03:39:25;;;;;;;9.35;5.40;;;;;;;21.80;68.60;98925.97;3171533;28;20047;-68
2023/07/02 03:40:56;;;;;;;12.70;5.68;;;;;;;21.81;68.90;98924.97;3171016;28;20500;-69
2023/07/02 03:42:27;;;;;;;10.77;5.53;;;;;;;21.79;69.13;98932.25;3169453;28;20047;-69
2023/07/02 03:43:59;;;;;;;11.48;6.43;;;;;;;21.76;68.91;98927.28;3159655;28;20205;-69
2023/07/02 03:45:31;;;;;;;13.63;5.40;;;;;;;21.72;69.00;98928.59;3171245;28;20079;-69
2023/07/02 03:47:02;;;;;;;11.35;5.60;;;;;;;21.69;69.01;98926.28;3170914;28;20044;-69
2023/07/02 03:48:33;;;;;;;10.50;5.60;;;;;;;21.71;68.86;98924.28;3171150;28;20412;-69
2023/07/02 03:50:06;;;;;;;13.38;5.55;;;;;;;21.66;69.44;98932.72;3170920;28;20048;-69
2023/07/02 03:51:38;;;;;;;9.23;5.70;;;;;;;21.65;69.15;98930.22;3169547;28;20047;-69
2023/07/02 03:53:11;;;;;;;12.43;5.95;;;;;;;21.63;69.38;98927.75;3170996;28;20309;-68
2023/07/02 03:54:43;;;;;;;11.00;5.65;;;;;;;21.53;69.23;98922.59;3163972;28;20044;-68
2023/07/02 03:56:14;;;;;;;11.68;6.00;;;;;;;21.50;69.71;98916.78;3158239;28;20063;-68
2023/07/02 03:57:46;;;;;;;12.98;6.10;;;;;;;21.56;69.54;98922.28;3166263;28;20070;-69
2023/07/02 03:59:18;;;;;;;13.40;5.80;;;;;;;21.55;69.67;98914.47;3170928;28;20485;-69
2023/07/02 04:00:50;;;;;;;21.95;6.28;;;;;;;21.57;69.29;98921.28;3166024;28;20048;-69
2023/07/02 04:02:21;;;;;;;12.18;6.05;;;;;;;21.61;69.37;98919.13;3165223;28;20078;-69
2023/07/02 04:03:55;;;;;;;11.25;5.88;;;;;;;21.53;69.39;98903.19;3170805;28;20058;-69
2023/07/02 04:05:26;;;;;;;10.57;6.57;;;;;;;21.71;69.35;98925.13;3170868;28;20069;-69
2023/07/02 04:06:58;;;;;;;10.73;6.53;;;;;;;21.73;68.84;98928.44;3170636;28;20048;-69
2023/07/02 04:08:31;;;;;;;11.27;6.00;;;;;;;21.71;69.24;98922.47;3170882;28;20063;-69
2023/07/02 04:10:03;;;;;;;11.60;5.90;;;;;;;21.62;69.59;98914.66;3170523;28;20052;-68
2023/07/02 04:11:35;;;;;;;10.52;6.00;;;;;;;21.64;69.59;98926.75;3170788;28;20051;-69
2023/07/02 04:13:05;;;;;;;11.65;6.10;;;;;;;21.68;69.58;98928.09;3170281;28;20053;-69
2023/07/02 04:14:37;;;;;;;12.50;5.93;;;;;;;21.69;69.55;98931.59;3170946;28;20055;-69
2023/07/02 04:16:09;;;;;;;18.67;6.53;;;;;;;21.65;69.22;98925.78;3170563;28;20050;-68
2023/07/02 04:17:41;;;;;;;15.90;5.85;;;;;;;21.66;69.38;98923.94;3158589;28;20134;-69
2023/07/02 04:19:13;;;;;;;15.88;6.97;;;;;;;21.66;69.60;98929.25;3169743;28;20044;-69
2023/07/02 04:20:43;;;;;;;16.58;6.68;;;;;;;21.68;69.60;98924.59;3170675;28;20058;-68
2023/07/02 04:22:15;;;;;;;13.63;6.53;;;;;;;21.71;69.34;98927.78;3170457;28;20073;-69
2023/07/02 04:23:49;;;;;;;16.02;6.53;;;;;;;21.73;69.65;98924.94;3170444;28;20048;-68
2023/07/02 04:25:20;;;;;;;12.82;5.65;;;;;;;21.71;69.42;98926.94;3170540;28;20043;-69
2023/07/02 04:26:53;;;;;;;18.05;6.47;;;;;;;21.70;69.69;98930.56;3170352;28;20047;-69
2023/07/02 04:28:26;;;;;;;18.02;6.65;;;;;;;21.73;69.66;98933.72;3170681;28;20062;-68
2023/07/02 04:29:57;;;;;;;17.23;6.28;;;;;;;21.74;69.88;98932.75;3170215;28;20047;-68
2023/07/02 04:31:28;;;;;;;13.20;5.85;;;;;;;21.77;69.55;98934.25;3165293;28;20076;-68
2023/07/02 04:32:59;;;;;;;16.17;6.45;;;;;;;21.74;69.58;98934.56;3162531;28;20444;-68
2023/07/02 04:34:31;;;;;;;17.23;6.82;;;;;;;21.84;69.22;98945.03;3170444;28;20077;-69
2023/07/02 04:36:03;;;;;;;19.15;6.82;;;;;;;21.82;69.25;98937.22;3170126;28;20414;-69
2023/07/02 04:37:35;;;;;;;17.30;7.07;;;;;;;21.86;69.84;98932.44;3170822;28;20055;-68
2023/07/02 04:39:10;;;;;;;12.57;5.90;;;;;;;21.89;69.32;98929.44;3170529;28;20464;-68
2023/07/02 04:40:44;;;;;;;13.73;5.95;;;;;;;21.93;69.23;98925.50;3170595;28;20086;-69
2023/07/02 04:42:16;;;;;;;10.82;5.80;;;;;;;21.94;69.09;98929.81;3170329;28;20062;-68
2023/07/02 04:43:47;;;;;;;13.98;6.32;;;;;;;21.97;69.02;98922.34;3158391;28;20461;-68
2023/07/02 04:45:19;;;;;;;15.60;6.30;;;;;;;21.96;68.79;98928.66;3170539;28;20054;-68
2023/07/02 04:46:51;;;;;;;9.80;6.00;;;;;;;21.95;68.95;98926.19;3165977;28;20047;-68
2023/07/02 04:48:23;;;;;;;11.40;6.30;;;;;;;21.99;68.52;98936.28;3169280;28;20138;-69
2023/07/02 04:49:53;;;;;;;12.43;7.07;;;;;;;22.02;68.49;98941.25;3170327;28;20490;-68
2023/07/02 04:51:25;;;;;;;14.88;6.20;;;;;;;22.06;68.60;98949.69;3169301;28;20185;-69
2023/07/02 04:52:57;;;;;;;14.55;7.10;;;;;;;22.10;68.33;98956.34;3170103;28;20605;-69
2023/07/02 04:54:30;;;;;;;16.85;6.85;;;;;;;22.12;68.50;98962.28;3170177;28;20051;-69
2023/07/02 04:56:01;;;;;;;14.00;6.88;;;;;;;22.13;67.99;98957.84;3170356;28;20043;-69
2023/07/02 04:57:33;;;;;;;14.30;6.35;;;;;;;22.17;68.08;98954.72;3169706;28;20051;-69
2023/07/02 04:59:05;;;;;;;15.32;6.68;;;;;;;22.23;68.00;98953.22;3170252;28;20108;-69
2023/07/02 05:00:37;;;;;;;14.35;6.57;;;;;;;22.24;67.97;98955.75;3167204;28;20102;-69
2023/07/02 05:02:09;;;;;;;17.35;5.97;;;;;;;22.24;67.96;98952.22;3161990;28;20085;-69
2023/07/02 05:03:40;;;;;;;12.18;6.28;;;;;;;22.15;67.91;98943.41;3170105;28;20055;-69
2023/07/02 05:05:12;;;;;;;15.57;5.85;;;;;;;22.20;68.12;98954.38;3170156;28;20066;-69
2023/07/02 05:06:44;;;;;;;12.98;6.75;;;;;;;22.18;67.61;98942.28;3170607;28;20433;-69
2023/07/02 05:08:16;;;;;;;15.88;6.22;;;;;;;22.26;67.66;98955.56;3170427;28;20052;-69
2023/07/02 05:09:49;;;;;;;21.90;6.90;;;;;;;22.33;67.89;98956.56;3170201;28;20039;-69
2023/07/02 05:11:21;;;;;;;;;;;;;;;22.22;68.18;98951.59;3170947;28;20055;-69
2023/07/02 05:12:52;;;;;;;23.27;7.50;;;;;;;22.30;69.14;98967.47;3170576;28;20383;-69
2023/07/02 05:14:23;;;;;;;18.58;7.45;;;;;;;22.38;69.61;98975.47;3169977;28;20048;-69
2023/07/02 05:15:54;;;;;;;15.75;6.45;;;;;;;22.36;70.55;98974.81;3170044;28;20052;-69
2023/07/02 05:17:26;;;;;;;15.63;6.80;;;;;;;22.30;71.00;98967.47;3160186;28;20422;-70
2023/07/02 05:18:58;;;;;;;14.85;6.95;;;;;;;22.28;71.24;98968.66;3167407;28;20505;-70
2023/07/02 05:20:29;;;;;;;18.35;6.97;;;;;;;22.28;71.59;98977.44;3161118;28;20047;-67
2023/07/02 05:22:01;;;;;;;13.45;7.07;;;;;;;22.31;72.04;98982.44;3165763;28;20134;-69
2023/07/02 05:23:32;;;;;;;11.30;6.80;;;;;;;22.32;72.09;98981.41;3170385;28;20054;-69
2023/07/02 05:25:05;;;;;;;14.65;6.82;;;;;;;22.34;71.96;98982.09;3169842;28;20073;-68
2023/07/02 05:26:37;;;;;;;16.20;7.47;;;;;;;22.32;72.52;98991.22;3170345;28;20086;-68
2023/07/02 05:28:08;;;;;;;16.48;7.28;;;;;;;22.32;72.48;98981.41;3169892;28;20047;-69
2023/07/02 05:29:40;;;;;;;15.23;7.30;;;;;;;22.37;72.84;98997.69;3170308;28;20058;-68
2023/07/02 05:31:11;;;;;;;14.90;6.82;;;;;;;22.40;72.69;98994.69;3169940;28;20505;-68
2023/07/02 05:32:43;;;;;;;15.18;7.75;;;;;;;22.42;72.79;98999.81;3169873;28;20112;-68
2023/07/02 05:34:14;;;;;;;13.32;7.70;;;;;;;22.45;72.72;99000.34;3170076;28;20051;-68
2023/07/02 05:35:46;;;;;;;15.95;7.50;;;;;;;22.48;73.15;99002.66;3170239;28;20101;-69
2023/07/02 05:37:17;;;;;;;17.40;8.63;;;;;;;22.54;73.40;99002.97;3170139;28;20048;-68
2023/07/02 05:38:49;;;;;;;15.57;7.50;;;;;;;22.57;73.34;99007.97;3145112;28;20048;-68
2023/07/02 05:40:22;;;;;;;16.98;7.35;;;;;;;22.60;73.55;99012.97;3168860;28;20059;-68
2023/07/02 05:41:53;;;;;;;17.20;8.25;;;;;;;22.58;73.47;99007.81;3169851;28;20105;-69
2023/07/02 05:43:24;;;;;;;15.48;7.43;;;;;;;22.58;73.75;99021.06;3161844;28;20551;-69
2023/07/02 05:44:55;;;;;;;14.60;7.00;;;;;;;22.58;73.28;99017.59;3169911;28;20536;-69
2023/07/02 05:46:27;;;;;;;15.65;7.43;;;;;;;22.57;72.93;99019.44;3169756;28;20043;-69
2023/07/02 05:47:59;;;;;;;14.73;8.40;;;;;;;22.56;72.75;99014.28;3165209;28;20043;-69
2023/07/02 05:49:30;;;;;;;13.02;6.72;;;;;;;22.59;72.28;99013.94;3169969;28;20524;-68
2023/07/02 05:51:03;;;;;;;12.05;7.13;;;;;;;22.58;71.79;99006.97;3169747;28;20066;-69
2023/07/02 05:52:35;;;;;;;10.60;6.72;;;;;;;22.59;71.91;99009.47;3170202;28;20058;-68
2023/07/02 05:54:07;;;;;;;10.27;6.68;;;;;;;22.63;71.27;99002.00;3169794;28;20097;-68
2023/07/02 05:55:41;;;;;;;15.00;7.15;;;;;;;22.65;70.75;98997.34;3169938;28;20059;-69
2023/07/02 05:57:13;;;;;;;17.23;7.38;;;;;;;22.68;70.96;98999.66;3169914;28;20083;-69
2023/07/02 05:58:46;;;;;;;16.70;7.00;;;;;;;22.75;70.28;98994.56;3169758;28;20047;-69
2023/07/02 06:00:18;;;;;;;11.90;6.80;;;;;;;22.78;70.48;98989.72;3169472;28;20047;-69
2023/07/02 06:01:50;;;;;;;19.33;6.97;;;;;;;22.81;70.28;98997.34;3160585;28;20059;-69
2023/07/02 06:03:22;;;;;;;12.30;6.57;;;;;;;22.85;69.65;99005.81;3169781;28;20066;-69
2023/07/02 06:04:54;;;;;;;15.27;6.70;;;;;;;22.82;69.39;99006.97;3169711;28;20815;-69
2023/07/02 06:06:24;;;;;;;15.57;6.60;;;;;;;22.81;69.42;99020.44;3145303;28;20052;-69
2023/07/02 06:07:56;;;;;;;12.98;7.10;;;;;;;22.75;69.38;99021.91;3157320;28;20054;-69
2023/07/02 06:09:28;;;;;;;15.80;6.95;;;;;;;22.71;69.28;99017.91;3168770;28;20723;-68
2023/07/02 06:11:00;;;;;;;13.20;7.38;;;;;;;22.76;68.97;99007.63;3169964;28;20055;-69
2023/07/02 06:12:32;;;;;;;11.57;6.63;;;;;;;22.74;69.21;98999.00;3169892;28;20486;-68
2023/07/02 06:14:04;;;;;;;14.20;6.82;;;;;;;22.77;69.40;98989.88;3169695;28;20055;-69
2023/07/02 06:15:35;;;;;;;12.18;7.28;;;;;;;22.78;69.77;98997.69;3169903;28;20444;-69
2023/07/02 06:17:09;;;;;;;15.63;6.93;;;;;;;22.84;69.43;98994.38;3162454;28;20044;-68
2023/07/02 06:18:39;;;;;;;13.73;6.75;;;;;;;22.87;70.01;99002.00;3164294;28;20139;-68
2023/07/02 06:20:12;;;;;;;12.40;6.60;;;;;;;22.87;69.63;98999.34;3163457;28;20043;-68
2023/07/02 06:21:44;;;;;;;9.82;6.22;;;;;;;22.91;69.68;98999.81;3169736;28;20047;-68
2023/07/02 06:23:15;;;;;;;18.60;7.03;;;;;;;22.92;69.30;99002.31;3169412;28;20112;-69
2023/07/02 06:24:47;;;;;;;12.52;7.25;;;;;;;22.96;69.70;98994.06;3169831;28;20089;-69
2023/07/02 06:26:20;;;;;;;12.82;7.20;;;;;;;23.00;69.14;99000.69;3169842;28;20051;-69
2023/07/02 06:27:54;;;;;;;14.30;7.18;;;;;;;23.03;68.93;99000.34;3169686;28;20448;-68
2023/07/02 06:29:28;;;;;;;14.05;7.50;;;;;;;23.07;68.73;98991.03;3169634;28;20422;-69
2023/07/02 06:31:00;;;;;;;15.57;7.53;;;;;;;23.11;68.50;98987.88;3171627;28;20441;-69
2023/07/02 06:32:32;;;;;;;15.20;7.32;;;;;;;23.16;68.48;98985.56;3172333;28;20149;-68
2023/07/02 06:34:03;;;;;;;12.05;7.30;;;;;;;23.21;68.77;98985.03;3172182;28;20054;-69
2023/07/02 06:35:35;;;;;;;11.60;6.78;;;;;;;23.26;68.49;98980.03;3171922;28;20058;-68
2023/07/02 06:37:07;;;;;;;15.90;6.93;;;;;;;23.32;68.07;98982.00;3171691;28;20054;-68
2023/07/02 06:38:39;;;;;;;14.82;6.90;;;;;;;23.39;67.67;98982.97;3171743;28;20051;-68
2023/07/02 06:40:12;;;;;;;17.20;7.85;;;;;;;23.46;67.59;98979.66;3170210;28;20048;-68
2023/07/02 06:41:45;;;;;;;14.07;7.05;;;;;;;23.48;67.81;98977.63;3171640;28;20055;-68
2023/07/02 06:43:17;;;;;;;23.63;7.32;;;;;;;23.50;67.22;98979.13;3162850;28;20060;-69
2023/07/02 06:44:48;;;;;;;11.90;6.65;;;;;;;23.54;67.45;98976.94;3159458;28;20048;-68
2023/07/02 06:46:20;;;;;;;12.70;6.20;;;;;;;23.59;66.67;98971.94;3166408;28;20074;-68
2023/07/02 06:47:52;;;;;;;9.20;5.82;;;;;;;23.67;66.19;98982.53;3171759;28;20051;-69
2023/07/02 06:49:23;;;;;;;12.13;6.18;;;;;;;23.73;66.50;98976.56;3171846;28;20078;-68
2023/07/02 06:50:57;;;;;;;12.13;6.50;;;;;;;23.79;65.72;98975.88;3166900;28;20269;-68
2023/07/02 06:52:28;;;;;;;12.45;6.55;;;;;;;23.83;65.40;98979.00;3163409;28;20122;-67
2023/07/02 06:53:59;;;;;;;14.32;6.50;;;;;;;23.90;65.43;98981.78;3171524;28;20549;-68
2023/07/02 06:55:31;;;;;;;11.60;6.15;;;;;;;23.99;64.92;98978.09;3171936;28;20040;-68
2023/07/02 06:57:05;;;;;;;12.70;6.60;;;;;;;24.10;64.50;98971.53;3171614;28;20531;-69
2023/07/02 06:58:37;;;;;;;11.02;5.63;;;;;;;24.20;63.98;98977.47;3171750;28;20055;-68
2023/07/02 07:00:09;;;;;;;10.02;6.00;;;;;;;24.31;63.97;98971.69;3171571;28;20054;-68
2023/07/02 07:01:40;;;;;;;12.38;6.82;;;;;;;24.41;63.84;98974.97;3159927;28;20051;-68
2023/07/02 07:03:12;;;;;;;13.75;5.65;;;;;;;24.54;62.95;98977.06;3171814;28;20469;-69
2023/07/02 07:04:44;;;;;;;11.65;6.25;;;;;;;24.62;62.92;98979.66;3171391;28;20505;-69
2023/07/02 07:06:16;;;;;;;15.65;5.95;;;;;;;24.70;62.34;98984.91;3171670;28;20044;-69
2023/07/02 07:07:47;;;;;;;9.73;5.80;;;;;;;24.76;62.34;98978.03;3166910;28;20080;-69
2023/07/02 07:09:18;;;;;;;11.30;5.75;;;;;;;24.85;62.27;98984.94;3159445;28;20048;-69